AFR1226 LFPG-LIPZ
Flight info
| Callsign | AFR1226 |
|---|---|
| Flight time | 1h 7m |
| Altitude | 33000 |
| Route | LANVI DCT DEVDI DCT RIPUS DCT RESIA DCT ADOSA L612 ALBET |
| Aircraft | A320/M-SDE3FGHIRWY/LB1 |
Departure
| Time | 2026-05-07 17:25 |
|---|---|
| Airport | Charles de Gaulle International Airport (LFPG) |
Arrival
| Time | 2026-05-07 18:33 |
|---|---|
| Airport | Venice Marco Polo Airport (LIPZ) |
| Time | Latitude | Longitude | Altitude | Speed | Heading |
|---|---|---|---|---|---|
| 2026-05-07 17:10 | 49.00715 | 2.57444 | 361 ft | 0 kts | 208° |
| 2026-05-07 17:15 | 49.00717 | 2.57446 | 361 ft | 2 kts | 208° |
| 2026-05-07 17:15 | 49.00740 | 2.57464 | 359 ft | 4 kts | 213° |
| 2026-05-07 17:16 | 49.00759 | 2.57491 | 362 ft | 4 kts | 239° |
| 2026-05-07 17:16 | 49.00768 | 2.57526 | 364 ft | 2 kts | 265° |
| 2026-05-07 17:16 | 49.00768 | 2.57534 | 364 ft | 0 kts | 265° |
| 2026-05-07 17:18 | 49.00767 | 2.57514 | 364 ft | 7 kts | 265° |
| 2026-05-07 17:18 | 49.00760 | 2.57393 | 356 ft | 13 kts | 265° |
| 2026-05-07 17:18 | 49.00754 | 2.57269 | 354 ft | 11 kts | 272° |
| 2026-05-07 17:18 | 49.00802 | 2.57210 | 361 ft | 9 kts | 348° |
| 2026-05-07 17:19 | 49.00854 | 2.57137 | 359 ft | 16 kts | 278° |
| 2026-05-07 17:19 | 49.00844 | 2.56925 | 354 ft | 22 kts | 265° |
| 2026-05-07 17:19 | 49.00832 | 2.56687 | 354 ft | 23 kts | 265° |
| 2026-05-07 17:19 | 49.00815 | 2.56437 | 354 ft | 24 kts | 263° |
| 2026-05-07 17:20 | 49.00791 | 2.56179 | 359 ft | 25 kts | 262° |
| 2026-05-07 17:20 | 49.00765 | 2.55909 | 359 ft | 26 kts | 261° |
| 2026-05-07 17:20 | 49.00740 | 2.55630 | 359 ft | 27 kts | 263° |
| 2026-05-07 17:20 | 49.00723 | 2.55422 | 358 ft | 12 kts | 252° |
| 2026-05-07 17:21 | 49.00658 | 2.55379 | 354 ft | 10 kts | 167° |
| 2026-05-07 17:21 | 49.00583 | 2.55411 | 358 ft | 15 kts | 164° |
| 2026-05-07 17:21 | 49.00454 | 2.55468 | 358 ft | 22 kts | 164° |
| 2026-05-07 17:21 | 49.00305 | 2.55533 | 354 ft | 23 kts | 163° |
| 2026-05-07 17:22 | 49.00148 | 2.55602 | 362 ft | 24 kts | 164° |
| 2026-05-07 17:22 | 48.99998 | 2.55669 | 357 ft | 15 kts | 163° |
| 2026-05-07 17:22 | 48.99917 | 2.55764 | 356 ft | 15 kts | 134° |
| 2026-05-07 17:22 | 48.99820 | 2.55799 | 354 ft | 7 kts | 175° |
| 2026-05-07 17:23 | 48.99778 | 2.55804 | 360 ft | 5 kts | 175° |
| 2026-05-07 17:23 | 48.99744 | 2.55808 | 355 ft | 4 kts | 175° |
| 2026-05-07 17:23 | 48.99699 | 2.55814 | 356 ft | 10 kts | 175° |
| 2026-05-07 17:23 | 48.99631 | 2.55822 | 354 ft | 9 kts | 173° |
| 2026-05-07 17:24 | 48.99604 | 2.55895 | 355 ft | 8 kts | 92° |
| 2026-05-07 17:24 | 48.99608 | 2.55985 | 354 ft | 14 kts | 85° |
| 2026-05-07 17:24 | 48.99634 | 2.56459 | 356 ft | 79 kts | 85° |
| 2026-05-07 17:24 | 48.99694 | 2.57599 | 352 ft | 134 kts | 85° |
| 2026-05-07 17:25 | 48.99787 | 2.59220 | 504 ft | 162 kts | 83° |
| 2026-05-07 17:25 | 48.99876 | 2.60928 | 1142 ft | 162 kts | 84° |
| 2026-05-07 17:25 | 48.99963 | 2.62644 | 1779 ft | 163 kts | 84° |
| 2026-05-07 17:25 | 49.00053 | 2.64365 | 2373 ft | 163 kts | 84° |
| 2026-05-07 17:26 | 49.00144 | 2.66092 | 2920 ft | 164 kts | 84° |
| 2026-05-07 17:26 | 49.00235 | 2.67833 | 3457 ft | 166 kts | 84° |
| 2026-05-07 17:26 | 49.00333 | 2.69665 | 3747 ft | 184 kts | 85° |
| 2026-05-07 17:26 | 49.00442 | 2.71730 | 3970 ft | 207 kts | 85° |
| 2026-05-07 17:27 | 49.00563 | 2.74057 | 4240 ft | 232 kts | 85° |
| 2026-05-07 17:27 | 49.00694 | 2.76631 | 4598 ft | 255 kts | 85° |
| 2026-05-07 17:27 | 49.00600 | 2.79389 | 5231 ft | 266 kts | 99° |
| 2026-05-07 17:27 | 49.00301 | 2.82197 | 6043 ft | 271 kts | 100° |
| 2026-05-07 17:28 | 48.99996 | 2.85052 | 6842 ft | 275 kts | 100° |
| 2026-05-07 17:28 | 48.99684 | 2.87949 | 7613 ft | 280 kts | 100° |
| 2026-05-07 17:28 | 48.99369 | 2.90897 | 8385 ft | 284 kts | 100° |
| 2026-05-07 17:28 | 48.99049 | 2.93898 | 9165 ft | 289 kts | 100° |
| 2026-05-07 17:29 | 48.98728 | 2.96950 | 9909 ft | 295 kts | 99° |
| 2026-05-07 17:29 | 48.98444 | 3.00085 | 10422 ft | 308 kts | 98° |
| 2026-05-07 17:29 | 48.98169 | 3.03441 | 10633 ft | 331 kts | 98° |
| 2026-05-07 17:29 | 48.97882 | 3.07038 | 10796 ft | 354 kts | 98° |
| 2026-05-07 17:30 | 48.97577 | 3.10860 | 10964 ft | 371 kts | 98° |
| 2026-05-07 17:30 | 48.97263 | 3.14786 | 11106 ft | 378 kts | 98° |
| 2026-05-07 17:30 | 48.96943 | 3.18713 | 11789 ft | 380 kts | 98° |
| 2026-05-07 17:30 | 48.96607 | 3.22722 | 12458 ft | 384 kts | 98° |
| 2026-05-07 17:31 | 48.96261 | 3.26763 | 13098 ft | 388 kts | 98° |
| 2026-05-07 17:31 | 48.95907 | 3.30853 | 13733 ft | 392 kts | 98° |
| 2026-05-07 17:31 | 48.95546 | 3.34985 | 14297 ft | 396 kts | 98° |
| 2026-05-07 17:31 | 48.95184 | 3.39157 | 14859 ft | 399 kts | 98° |
| 2026-05-07 17:32 | 48.94818 | 3.43365 | 15418 ft | 403 kts | 98° |
| 2026-05-07 17:32 | 48.94447 | 3.47611 | 15981 ft | 407 kts | 98° |
| 2026-05-07 17:32 | 48.94073 | 3.51903 | 16533 ft | 410 kts | 98° |
| 2026-05-07 17:32 | 48.93704 | 3.56223 | 17078 ft | 414 kts | 97° |
| 2026-05-07 17:33 | 48.93405 | 3.60599 | 17629 ft | 418 kts | 96° |
| 2026-05-07 17:33 | 48.93173 | 3.65025 | 18174 ft | 422 kts | 95° |
| 2026-05-07 17:33 | 48.92972 | 3.69488 | 18650 ft | 425 kts | 94° |
| 2026-05-07 17:33 | 48.92775 | 3.73994 | 19121 ft | 428 kts | 95° |
| 2026-05-07 17:34 | 48.92562 | 3.78522 | 19588 ft | 431 kts | 95° |
| 2026-05-07 17:34 | 48.92331 | 3.83080 | 20030 ft | 433 kts | 95° |
| 2026-05-07 17:34 | 48.92084 | 3.87658 | 20477 ft | 436 kts | 95° |
| 2026-05-07 17:34 | 48.91827 | 3.92267 | 20914 ft | 438 kts | 95° |
| 2026-05-07 17:35 | 48.91565 | 3.96897 | 21343 ft | 441 kts | 96° |
| 2026-05-07 17:35 | 48.91299 | 4.01555 | 21763 ft | 443 kts | 95° |
| 2026-05-07 17:35 | 48.91033 | 4.06230 | 22170 ft | 446 kts | 95° |
| 2026-05-07 17:35 | 48.90765 | 4.10936 | 22562 ft | 448 kts | 95° |
| 2026-05-07 17:36 | 48.90497 | 4.15668 | 22935 ft | 450 kts | 96° |
| 2026-05-07 17:36 | 48.90033 | 4.20379 | 23303 ft | 452 kts | 104° |
| 2026-05-07 17:36 | 48.89097 | 4.24938 | 23656 ft | 453 kts | 113° |
| 2026-05-07 17:36 | 48.87735 | 4.29183 | 23955 ft | 454 kts | 121° |
| 2026-05-07 17:37 | 48.86190 | 4.33374 | 24257 ft | 455 kts | 121° |
| 2026-05-07 17:37 | 48.84641 | 4.37582 | 24562 ft | 457 kts | 120° |
| 2026-05-07 17:37 | 48.83091 | 4.41799 | 24864 ft | 458 kts | 120° |
| 2026-05-07 17:37 | 48.81537 | 4.46037 | 25153 ft | 460 kts | 120° |
| 2026-05-07 17:38 | 48.79979 | 4.50286 | 25420 ft | 462 kts | 120° |
| 2026-05-07 17:38 | 48.78413 | 4.54551 | 25695 ft | 464 kts | 120° |
| 2026-05-07 17:38 | 48.76837 | 4.58836 | 25964 ft | 465 kts | 120° |
| 2026-05-07 17:38 | 48.75257 | 4.63121 | 26225 ft | 467 kts | 120° |
| 2026-05-07 17:39 | 48.73666 | 4.67423 | 26475 ft | 468 kts | 121° |
| 2026-05-07 17:39 | 48.72068 | 4.71729 | 26723 ft | 470 kts | 121° |
| 2026-05-07 17:39 | 48.70462 | 4.76049 | 26952 ft | 471 kts | 121° |
| 2026-05-07 17:39 | 48.68851 | 4.80377 | 27170 ft | 473 kts | 121° |
| 2026-05-07 17:40 | 48.67234 | 4.84718 | 27377 ft | 474 kts | 121° |
| 2026-05-07 17:40 | 48.65612 | 4.89064 | 27673 ft | 474 kts | 121° |
| 2026-05-07 17:40 | 48.63993 | 4.93397 | 27982 ft | 473 kts | 121° |
| 2026-05-07 17:40 | 48.62378 | 4.97723 | 28296 ft | 472 kts | 121° |
| 2026-05-07 17:41 | 48.60761 | 5.02045 | 28606 ft | 472 kts | 121° |
| 2026-05-07 17:41 | 48.59144 | 5.06351 | 28917 ft | 471 kts | 121° |
| 2026-05-07 17:41 | 48.57524 | 5.10654 | 29235 ft | 470 kts | 121° |
| 2026-05-07 17:41 | 48.55928 | 5.14887 | 29552 ft | 470 kts | 121° |
| 2026-05-07 17:42 | 48.54311 | 5.19167 | 29876 ft | 469 kts | 121° |
| 2026-05-07 17:42 | 48.52694 | 5.23438 | 30167 ft | 469 kts | 121° |
| 2026-05-07 17:42 | 48.51074 | 5.27707 | 30424 ft | 469 kts | 121° |
| 2026-05-07 17:42 | 48.49456 | 5.31968 | 30679 ft | 469 kts | 121° |
| 2026-05-07 17:43 | 48.47836 | 5.36233 | 30931 ft | 468 kts | 121° |
| 2026-05-07 17:43 | 48.46218 | 5.40490 | 31181 ft | 468 kts | 121° |
| 2026-05-07 17:43 | 48.44594 | 5.44745 | 31433 ft | 468 kts | 121° |
| 2026-05-07 17:43 | 48.42971 | 5.48994 | 31677 ft | 468 kts | 121° |
| 2026-05-07 17:44 | 48.41346 | 5.53245 | 31939 ft | 468 kts | 121° |
| 2026-05-07 17:44 | 48.39724 | 5.57488 | 32206 ft | 468 kts | 121° |
| 2026-05-07 17:44 | 48.38099 | 5.61728 | 32446 ft | 468 kts | 122° |
| 2026-05-07 17:44 | 48.36472 | 5.65962 | 32683 ft | 468 kts | 122° |
| 2026-05-07 17:45 | 48.34838 | 5.70201 | 32920 ft | 469 kts | 122° |
| 2026-05-07 17:45 | 48.33197 | 5.74447 | 33044 ft | 470 kts | 122° |
| 2026-05-07 17:45 | 48.29956 | 5.83036 | 33056 ft | 474 kts | 119° |
| 2026-05-07 17:46 | 48.27093 | 5.91962 | 33057 ft | 475 kts | 116° |
| 2026-05-07 17:46 | 48.24379 | 6.01011 | 33054 ft | 475 kts | 116° |
| 2026-05-07 17:47 | 48.21593 | 6.10014 | 33056 ft | 476 kts | 117° |
| 2026-05-07 17:47 | 48.18717 | 6.18948 | 33051 ft | 476 kts | 117° |
| 2026-05-07 17:48 | 48.15816 | 6.27862 | 33048 ft | 476 kts | 117° |
| 2026-05-07 17:48 | 48.12949 | 6.36711 | 33046 ft | 476 kts | 117° |
| 2026-05-07 17:49 | 48.10066 | 6.45630 | 33038 ft | 476 kts | 117° |
| 2026-05-07 17:49 | 48.07176 | 6.54527 | 33037 ft | 476 kts | 117° |
| 2026-05-07 17:50 | 48.04269 | 6.63422 | 33040 ft | 476 kts | 117° |
| 2026-05-07 17:50 | 48.01357 | 6.72304 | 33027 ft | 476 kts | 117° |
| 2026-05-07 17:51 | 47.98444 | 6.81192 | 33025 ft | 477 kts | 117° |
| 2026-05-07 17:51 | 47.95527 | 6.90077 | 33025 ft | 477 kts | 117° |
| 2026-05-07 17:52 | 47.92587 | 6.98946 | 33030 ft | 477 kts | 118° |
| 2026-05-07 17:52 | 47.89635 | 7.07821 | 33032 ft | 478 kts | 118° |
| 2026-05-07 17:53 | 47.86685 | 7.16682 | 33027 ft | 478 kts | 118° |
| 2026-05-07 17:53 | 47.83731 | 7.25544 | 33024 ft | 478 kts | 118° |
| 2026-05-07 17:54 | 47.80764 | 7.34395 | 33025 ft | 478 kts | 118° |
| 2026-05-07 17:54 | 47.77789 | 7.43248 | 33024 ft | 478 kts | 118° |
| 2026-05-07 17:55 | 47.74807 | 7.52080 | 33010 ft | 478 kts | 118° |
| 2026-05-07 17:55 | 47.71168 | 7.60294 | 33009 ft | 476 kts | 128° |
| 2026-05-07 17:56 | 47.67225 | 7.68214 | 33009 ft | 477 kts | 128° |
| 2026-05-07 17:56 | 47.63293 | 7.76146 | 33012 ft | 477 kts | 128° |
| 2026-05-07 17:57 | 47.60015 | 7.82730 | 33013 ft | 478 kts | 128° |
| 2026-05-07 17:57 | 47.55411 | 7.91921 | 33016 ft | 478 kts | 129° |
| 2026-05-07 17:58 | 47.51451 | 7.99825 | 32996 ft | 478 kts | 129° |
| 2026-05-07 17:58 | 47.47481 | 8.07726 | 33004 ft | 479 kts | 129° |
| 2026-05-07 17:59 | 47.43500 | 8.15623 | 33009 ft | 479 kts | 129° |
| 2026-05-07 17:59 | 47.39512 | 8.23504 | 33013 ft | 479 kts | 129° |
| 2026-05-07 18:00 | 47.36193 | 8.30049 | 33017 ft | 479 kts | 129° |
| 2026-05-07 18:00 | 47.32183 | 8.37926 | 33017 ft | 480 kts | 129° |
| 2026-05-07 18:01 | 47.28168 | 8.45786 | 33016 ft | 480 kts | 129° |
| 2026-05-07 18:01 | 47.24160 | 8.53670 | 33007 ft | 481 kts | 129° |
| 2026-05-07 18:02 | 47.18278 | 8.65649 | 33014 ft | 482 kts | 128° |
| 2026-05-07 18:03 | 47.14348 | 8.73633 | 33015 ft | 483 kts | 129° |
| 2026-05-07 18:03 | 47.10385 | 8.81601 | 33021 ft | 483 kts | 129° |
| 2026-05-07 18:04 | 47.06401 | 8.89559 | 33020 ft | 484 kts | 129° |
| 2026-05-07 18:04 | 47.02407 | 8.97530 | 33002 ft | 484 kts | 129° |
| 2026-05-07 18:05 | 46.98438 | 9.05435 | 33014 ft | 485 kts | 129° |
| 2026-05-07 18:05 | 46.94430 | 9.13403 | 33017 ft | 486 kts | 129° |
| 2026-05-07 18:06 | 46.90415 | 9.21369 | 33017 ft | 487 kts | 129° |
| 2026-05-07 18:06 | 46.86388 | 9.29333 | 33016 ft | 487 kts | 130° |
| 2026-05-07 18:07 | 46.82344 | 9.37275 | 33019 ft | 487 kts | 130° |
| 2026-05-07 18:07 | 46.78297 | 9.45203 | 32993 ft | 488 kts | 130° |
| 2026-05-07 18:08 | 46.74242 | 9.53150 | 33006 ft | 489 kts | 130° |
| 2026-05-07 18:08 | 46.70174 | 9.61105 | 33000 ft | 490 kts | 130° |
| 2026-05-07 18:09 | 46.66099 | 9.69057 | 33000 ft | 490 kts | 130° |
| 2026-05-07 18:09 | 46.62006 | 9.76989 | 33009 ft | 491 kts | 131° |
| 2026-05-07 18:10 | 46.57903 | 9.84934 | 33010 ft | 491 kts | 131° |
| 2026-05-07 18:10 | 46.53795 | 9.92871 | 33000 ft | 491 kts | 131° |
| 2026-05-07 18:11 | 46.49673 | 10.00796 | 32998 ft | 492 kts | 131° |
| 2026-05-07 18:11 | 46.44955 | 10.07805 | 33012 ft | 482 kts | 146° |
| 2026-05-07 18:12 | 46.39773 | 10.13985 | 33009 ft | 483 kts | 146° |
| 2026-05-07 18:12 | 46.34620 | 10.20153 | 33016 ft | 484 kts | 146° |
| 2026-05-07 18:13 | 46.29432 | 10.26369 | 33024 ft | 484 kts | 146° |
| 2026-05-07 18:13 | 46.24227 | 10.32563 | 33029 ft | 485 kts | 146° |
| 2026-05-07 18:14 | 46.19018 | 10.38748 | 33034 ft | 485 kts | 146° |
| 2026-05-07 18:14 | 46.13803 | 10.44918 | 33035 ft | 485 kts | 146° |
| 2026-05-07 18:15 | 46.08582 | 10.51090 | 33034 ft | 485 kts | 146° |
| 2026-05-07 18:15 | 46.03359 | 10.57259 | 33032 ft | 485 kts | 146° |
| 2026-05-07 18:15 | 46.00750 | 10.60333 | 32886 ft | 485 kts | 146° |
| 2026-05-07 18:16 | 45.98134 | 10.63405 | 32608 ft | 485 kts | 146° |
| 2026-05-07 18:16 | 45.95517 | 10.66471 | 32228 ft | 485 kts | 146° |
| 2026-05-07 18:16 | 45.92881 | 10.69551 | 31017 ft | 492 kts | 146° |
| 2026-05-07 18:16 | 45.90209 | 10.72665 | 29893 ft | 496 kts | 146° |
| 2026-05-07 18:17 | 45.87521 | 10.75796 | 28660 ft | 498 kts | 145° |
| 2026-05-07 18:17 | 45.84835 | 10.78932 | 27418 ft | 498 kts | 145° |
| 2026-05-07 18:17 | 45.82146 | 10.82075 | 26137 ft | 499 kts | 144° |
| 2026-05-07 18:17 | 45.79450 | 10.85229 | 24816 ft | 500 kts | 144° |
| 2026-05-07 18:18 | 45.76753 | 10.88374 | 23610 ft | 500 kts | 143° |
| 2026-05-07 18:18 | 45.74078 | 10.91482 | 22742 ft | 489 kts | 143° |
| 2026-05-07 18:18 | 45.71448 | 10.94534 | 21654 ft | 486 kts | 143° |
| 2026-05-07 18:18 | 45.68888 | 10.97503 | 20929 ft | 475 kts | 143° |
| 2026-05-07 18:19 | 45.66338 | 11.00506 | 20024 ft | 473 kts | 140° |
| 2026-05-07 18:19 | 45.64052 | 11.03897 | 19463 ft | 463 kts | 131° |
| 2026-05-07 18:19 | 45.62193 | 11.07605 | 18806 ft | 457 kts | 124° |
| 2026-05-07 18:19 | 45.60508 | 11.11355 | 18113 ft | 452 kts | 123° |
| 2026-05-07 18:20 | 45.58823 | 11.15119 | 17366 ft | 447 kts | 123° |
| 2026-05-07 18:20 | 45.57157 | 11.18840 | 16649 ft | 443 kts | 123° |
| 2026-05-07 18:20 | 45.55505 | 11.22521 | 15945 ft | 438 kts | 123° |
| 2026-05-07 18:20 | 45.53970 | 11.26256 | 15299 ft | 435 kts | 116° |
| 2026-05-07 18:21 | 45.52705 | 11.30158 | 14647 ft | 431 kts | 115° |
| 2026-05-07 18:21 | 45.51459 | 11.34022 | 14015 ft | 427 kts | 115° |
| 2026-05-07 18:21 | 45.50221 | 11.37851 | 13346 ft | 423 kts | 115° |
| 2026-05-07 18:21 | 45.48993 | 11.41640 | 12691 ft | 419 kts | 115° |
| 2026-05-07 18:22 | 45.47777 | 11.45388 | 12037 ft | 414 kts | 115° |
| 2026-05-07 18:22 | 45.46981 | 11.47844 | 11616 ft | 411 kts | 115° |
| 2026-05-07 18:22 | 45.45387 | 11.52754 | 10753 ft | 404 kts | 115° |
| 2026-05-07 18:22 | 45.44210 | 11.56366 | 10096 ft | 400 kts | 115° |
| 2026-05-07 18:23 | 45.43047 | 11.59935 | 9384 ft | 395 kts | 115° |
| 2026-05-07 18:23 | 45.41896 | 11.63460 | 8665 ft | 390 kts | 115° |
| 2026-05-07 18:23 | 45.40768 | 11.66901 | 7979 ft | 385 kts | 116° |
| 2026-05-07 18:23 | 45.39639 | 11.70334 | 7261 ft | 380 kts | 115° |
| 2026-05-07 18:24 | 45.38524 | 11.73728 | 6545 ft | 376 kts | 115° |
| 2026-05-07 18:24 | 45.37423 | 11.77082 | 5800 ft | 372 kts | 115° |
| 2026-05-07 18:24 | 45.36333 | 11.80399 | 5047 ft | 368 kts | 116° |
| 2026-05-07 18:24 | 45.35265 | 11.83643 | 4698 ft | 353 kts | 116° |
| 2026-05-07 18:25 | 45.34251 | 11.86719 | 4572 ft | 333 kts | 116° |
| 2026-05-07 18:25 | 45.33296 | 11.89612 | 4470 ft | 315 kts | 116° |
| 2026-05-07 18:25 | 45.32393 | 11.92349 | 4393 ft | 297 kts | 116° |
| 2026-05-07 18:25 | 45.31538 | 11.94934 | 4315 ft | 281 kts | 116° |
| 2026-05-07 18:26 | 45.30730 | 11.97372 | 4241 ft | 265 kts | 116° |
| 2026-05-07 18:26 | 45.29964 | 11.99679 | 4139 ft | 251 kts | 116° |
| 2026-05-07 18:26 | 45.29236 | 12.01867 | 4024 ft | 239 kts | 116° |
| 2026-05-07 18:26 | 45.28703 | 12.04019 | 3940 ft | 226 kts | 98° |
| 2026-05-07 18:27 | 45.28782 | 12.06182 | 3850 ft | 215 kts | 74° |
| 2026-05-07 18:27 | 45.29401 | 12.08037 | 3812 ft | 202 kts | 52° |
| 2026-05-07 18:27 | 45.30374 | 12.09440 | 3734 ft | 198 kts | 40° |
| 2026-05-07 18:27 | 45.31054 | 12.10302 | 3678 ft | 198 kts | 40° |
| 2026-05-07 18:28 | 45.32428 | 12.12048 | 3570 ft | 198 kts | 41° |
| 2026-05-07 18:28 | 45.33452 | 12.13352 | 3494 ft | 198 kts | 41° |
| 2026-05-07 18:28 | 45.34474 | 12.14655 | 3420 ft | 198 kts | 41° |
| 2026-05-07 18:28 | 45.35502 | 12.15965 | 3342 ft | 199 kts | 41° |
| 2026-05-07 18:29 | 45.36520 | 12.17264 | 3278 ft | 199 kts | 41° |
| 2026-05-07 18:29 | 45.37553 | 12.18583 | 3093 ft | 199 kts | 41° |
| 2026-05-07 18:29 | 45.38579 | 12.19894 | 2851 ft | 198 kts | 42° |
| 2026-05-07 18:29 | 45.39607 | 12.21206 | 2595 ft | 199 kts | 42° |
| 2026-05-07 18:30 | 45.40630 | 12.22515 | 2325 ft | 198 kts | 43° |
| 2026-05-07 18:30 | 45.41651 | 12.23820 | 2066 ft | 196 kts | 43° |
| 2026-05-07 18:30 | 45.42659 | 12.25110 | 1805 ft | 194 kts | 44° |
| 2026-05-07 18:30 | 45.43652 | 12.26382 | 1539 ft | 188 kts | 44° |
| 2026-05-07 18:31 | 45.44593 | 12.27586 | 1314 ft | 177 kts | 45° |
| 2026-05-07 18:31 | 45.45482 | 12.28726 | 1075 ft | 167 kts | 44° |
| 2026-05-07 18:31 | 45.46327 | 12.29809 | 854 ft | 160 kts | 45° |
| 2026-05-07 18:31 | 45.47133 | 12.30843 | 658 ft | 152 kts | 45° |
| 2026-05-07 18:32 | 45.47896 | 12.31821 | 459 ft | 145 kts | 46° |
| 2026-05-07 18:32 | 45.48640 | 12.32782 | 250 ft | 144 kts | 44° |
| 2026-05-07 18:32 | 45.49381 | 12.33733 | 68 ft | 143 kts | 45° |
| 2026-05-07 18:32 | 45.50083 | 12.34643 | 16 ft | 118 kts | 42° |
| 2026-05-07 18:33 | 45.50476 | 12.35131 | 14 ft | 44 kts | 44° |
| 2026-05-07 18:33 | 45.50673 | 12.35367 | 16 ft | 28 kts | 20° |
| 2026-05-07 18:33 | 45.50865 | 12.35391 | 16 ft | 28 kts | 360° |
| 2026-05-07 18:33 | 45.50965 | 12.35298 | 17 ft | 17 kts | 264° |
| 2026-05-07 18:34 | 45.50913 | 12.35150 | 16 ft | 18 kts | 221° |
| 2026-05-07 18:34 | 45.50818 | 12.35028 | 16 ft | 19 kts | 222° |
| 2026-05-07 18:34 | 45.50714 | 12.34894 | 17 ft | 21 kts | 221° |
| 2026-05-07 18:34 | 45.50632 | 12.34789 | 16 ft | 13 kts | 225° |
| 2026-05-07 18:35 | 45.50602 | 12.34682 | 16 ft | 11 kts | 266° |
| 2026-05-07 18:35 | 45.50599 | 12.34579 | 16 ft | 10 kts | 268° |
| 2026-05-07 18:35 | 45.50597 | 12.34488 | 16 ft | 9 kts | 268° |
| 2026-05-07 18:35 | 45.50599 | 12.34409 | 16 ft | 8 kts | 282° |
| 2026-05-07 18:36 | 45.50616 | 12.34344 | 16 ft | 6 kts | 285° |
| 2026-05-07 18:36 | 45.50616 | 12.34285 | 16 ft | 5 kts | 264° |
| 2026-05-07 18:36 | 45.50614 | 12.34236 | 16 ft | 3 kts | 267° |
| 2026-05-07 18:36 | 45.50613 | 12.34208 | 16 ft | 2 kts | 267° |
| 2026-05-07 18:37 | 45.50613 | 12.34197 | 16 ft | 0 kts | 267° |